Time;durP1;ratioP1;P1;durP2;ratioP2;P2;SDS_P1;SDS_P2;PMS_P1;PMS_P2;Temp;Humidity;BMP_temperature;BMP_pressure;BME280_temperature;BME280_humidity;BME280_pressure;Samples;Min_cycle;Max_cycle;Signal;HPM_P1;HPM_P2
2021/07/16 00:00:14;;;;;;;25.92;21.10;;;;;;;23.18;69.87;100896.47;4924609;28;102227;-48
2021/07/16 00:02:42;;;;;;;24.23;20.95;;;;;;;23.19;69.86;100903.66;4934392;28;102733;-50
2021/07/16 00:05:10;;;;;;;22.87;20.47;;;;;;;23.18;69.98;100896.47;4932804;28;103232;-50
2021/07/16 00:07:37;;;;;;;25.02;21.17;;;;;;;23.18;70.17;100890.91;4941867;28;102829;-49
2021/07/16 00:10:07;;;;;;;24.52;20.23;;;;;;;23.18;69.96;100890.09;4928208;28;102621;-50
2021/07/16 00:12:34;;;;;;;25.65;20.02;;;;;;;23.18;69.76;100890.91;4945029;28;102357;-50
2021/07/16 00:15:03;;;;;;;;;;;;;;;23.18;69.59;100885.34;4940528;28;104140;-49
2021/07/16 00:17:31;;;;;;;21.30;19.08;;;;;;;23.17;69.81;100889.31;4942958;28;102425;-49
2021/07/16 00:19:57;;;;;;;21.90;19.60;;;;;;;23.18;69.82;100890.09;4940419;28;102374;-49
2021/07/16 00:22:24;;;;;;;22.08;19.67;;;;;;;23.18;69.91;100892.88;4941592;28;102168;-49
2021/07/16 00:24:51;;;;;;;24.15;20.20;;;;;;;23.18;69.93;100884.56;4948850;28;104029;-50
2021/07/16 00:27:17;;;;;;;25.55;19.13;;;;;;;23.17;70.18;100885.72;4946308;28;102548;-49
2021/07/16 00:29:44;;;;;;;22.33;19.95;;;;;;;23.17;70.09;100883.75;4951477;28;102252;-49
2021/07/16 00:32:11;;;;;;;20.67;18.48;;;;;;;23.18;70.00;100881.78;4950238;28;102339;-48
2021/07/16 00:34:39;;;;;;;21.75;19.20;;;;;;;23.17;69.90;100878.19;4947846;28;103958;-49
2021/07/16 00:37:12;;;;;;;24.08;19.40;;;;;;;23.17;70.01;100872.66;4947281;28;102680;-49
2021/07/16 00:39:38;;;;;;;21.55;19.25;;;;;;;23.17;70.07;100883.75;4963050;28;102016;-50
2021/07/16 00:42:05;;;;;;;21.55;18.75;;;;;;;23.16;70.11;100882.16;4951015;28;102700;-49
2021/07/16 00:44:34;;;;;;;21.17;18.75;;;;;;;23.17;69.89;100883.75;4949968;28;104239;-49
2021/07/16 00:47:01;;;;;;;24.20;19.17;;;;;;;23.17;70.06;100886.53;4943461;28;102415;-49
2021/07/16 00:49:28;;;;;;;20.98;17.23;;;;;;;23.17;70.08;100889.31;4947681;28;103073;-48
2021/07/16 00:51:57;;;;;;;20.48;18.23;;;;;;;23.17;69.77;100891.28;4947399;28;102863;-48
2021/07/16 00:54:24;;;;;;;20.23;18.05;;;;;;;23.17;69.86;100883.75;4938598;28;103916;-49
2021/07/16 00:56:51;;;;;;;21.50;18.70;;;;;;;23.17;70.18;100889.31;4951316;28;102477;-49
2021/07/16 00:59:18;;;;;;;20.70;17.95;;;;;;;23.16;69.96;100884.91;4947614;28;102576;-48
2021/07/16 01:01:47;;;;;;;19.83;17.73;;;;;;;23.17;70.12;100889.31;4951248;28;102508;-49
2021/07/16 01:04:15;;;;;;;19.85;17.25;;;;;;;23.16;70.02;100887.69;4932465;28;103633;-52
2021/07/16 01:06:41;;;;;;;19.33;16.75;;;;;;;23.16;70.02;100887.69;4944409;28;102542;-48
2021/07/16 01:09:10;;;;;;;19.48;17.48;;;;;;;23.16;70.11;100887.69;4939174;28;102687;-48
2021/07/16 01:11:37;;;;;;;19.70;17.60;;;;;;;23.16;69.95;100876.59;4942843;28;102306;-48
2021/07/16 01:14:05;;;;;;;19.85;17.70;;;;;;;23.17;70.19;100883.75;4943350;28;104078;-48
2021/07/16 01:16:31;;;;;;;18.98;16.45;;;;;;;23.17;70.20;100882.94;4931338;28;102626;-48
2021/07/16 01:19:00;;;;;;;20.75;17.67;;;;;;;23.17;70.16;100883.75;4943263;28;102676;-48
2021/07/16 01:21:28;;;;;;;;;;;;;;;23.16;69.88;100890.47;4932447;28;102347;-49
2021/07/16 01:23:56;;;;;;;19.60;17.13;;;;;;;23.17;69.97;100899.59;4958586;28;103946;-48
2021/07/16 01:26:23;;;;;;;20.27;17.33;;;;;;;23.16;70.01;100896.03;4956363;28;102655;-48
2021/07/16 01:28:51;;;;;;;19.10;16.33;;;;;;;23.15;70.02;100888.88;4956406;28;102446;-48
2021/07/16 01:31:20;;;;;;;17.95;16.05;;;;;;;23.15;70.13;100888.88;4949154;28;102229;-49
2021/07/16 01:33:46;;;;;;;19.27;16.10;;;;;;;23.16;70.12;100890.47;4945409;28;104141;-48
2021/07/16 01:36:13;;;;;;;17.85;15.98;;;;;;;23.15;70.03;100883.31;4950698;28;102633;-48
2021/07/16 01:38:40;;;;;;;19.33;15.82;;;;;;;23.16;70.40;100881.34;4947234;28;102217;-48
2021/07/16 01:41:08;;;;;;;18.65;16.13;;;;;;;23.15;70.25;100880.53;4948045;28;102236;-50
2021/07/16 01:43:35;;;;;;;17.85;15.95;;;;;;;23.15;70.10;100886.09;4945367;28;103922;-48
2021/07/16 01:46:02;;;;;;;18.10;15.93;;;;;;;23.15;70.03;100883.31;4951004;28;102179;-49
2021/07/16 01:48:30;;;;;;;18.83;15.55;;;;;;;23.15;70.18;100877.75;4947348;28;102348;-48
2021/07/16 01:50:56;;;;;;;18.70;15.07;;;;;;;23.16;70.15;100884.13;4938622;28;102574;-49
2021/07/16 01:53:23;;;;;;;17.73;15.07;;;;;;;23.15;70.00;100886.09;4927625;28;103909;-49
2021/07/16 01:55:50;;;;;;;17.52;15.25;;;;;;;23.15;70.04;100883.31;4948773;28;102258;-48
2021/07/16 01:58:18;;;;;;;16.42;14.80;;;;;;;23.15;70.13;100880.53;4940649;28;102382;-48
2021/07/16 02:00:47;;;;;;;16.92;14.98;;;;;;;23.16;70.10;100875.78;4931785;28;102399;-48
2021/07/16 02:03:15;;;;;;;16.75;14.98;;;;;;;23.14;70.23;100884.44;4944174;28;103710;-49
2021/07/16 02:05:44;;;;;;;19.90;15.15;;;;;;;23.15;70.13;100880.53;4940516;28;102445;-48
2021/07/16 02:08:15;;;;;;;16.67;15.02;;;;;;;23.14;69.94;100876.13;4944991;28;102543;-48
2021/07/16 02:10:42;;;;;;;18.08;14.77;;;;;;;23.13;70.27;100871.75;4945931;28;102849;-48
2021/07/16 02:13:09;;;;;;;15.68;13.98;;;;;;;23.14;70.12;100878.91;4946439;28;104624;-49
2021/07/16 02:15:43;;;;;;;16.60;14.95;;;;;;;23.14;69.90;100881.66;4954807;28;102049;-48
2021/07/16 02:18:09;;;;;;;16.40;14.65;;;;;;;23.13;70.16;100882.84;4945220;28;103221;-48
2021/07/16 02:20:38;;;;;;;17.13;15.10;;;;;;;23.13;70.38;100882.84;4950590;28;103667;-48
2021/07/16 02:23:09;;;;;;;16.98;14.95;;;;;;;23.12;70.08;100881.25;4947073;28;102415;-48
2021/07/16 02:25:36;;;;;;;16.33;14.63;;;;;;;23.13;70.15;100884.81;4931839;28;102253;-48
2021/07/16 02:28:06;;;;;;;17.05;14.43;;;;;;;23.12;70.23;100886.78;4937427;28;102831;-49
2021/07/16 02:30:33;;;;;;;14.90;13.30;;;;;;;23.13;70.03;100888.41;4946119;28;102398;-50
2021/07/16 02:33:02;;;;;;;17.45;13.43;;;;;;;23.13;70.29;100887.59;4947538;28;103917;-51
2021/07/16 02:35:30;;;;;;;14.70;12.77;;;;;;;23.13;70.19;100887.59;4943564;28;102509;-48
2021/07/16 02:37:58;;;;;;;19.08;12.57;;;;;;;23.13;69.99;100887.59;4951129;28;103409;-48
2021/07/16 02:40:25;;;;;;;14.70;13.20;;;;;;;23.12;70.34;100892.34;4948183;28;102536;-49
2021/07/16 02:42:52;;;;;;;16.63;13.00;;;;;;;23.12;70.19;100884.00;4946205;28;103782;-48
2021/07/16 02:45:22;;;;;;;15.57;13.35;;;;;;;23.13;70.16;100887.59;4949290;28;102040;-49
2021/07/16 02:47:49;;;;;;;14.98;12.43;;;;;;;23.12;70.08;100895.13;4943742;28;102874;-48
2021/07/16 02:50:21;;;;;;;15.97;13.17;;;;;;;23.13;70.25;100890.38;4942809;28;102720;-48
2021/07/16 02:52:48;;;;;;;15.23;12.93;;;;;;;23.12;70.32;100886.78;4948800;28;103857;-49
2021/07/16 02:55:16;;;;;;;14.02;12.52;;;;;;;23.12;69.99;100884.00;4934686;28;102415;-49
2021/07/16 02:57:43;;;;;;;15.90;13.47;;;;;;;23.12;70.13;100886.78;4947726;28;102521;-49
2021/07/16 03:00:12;;;;;;;15.73;12.18;;;;;;;23.11;70.20;100879.59;4948430;28;102113;-50
2021/07/16 03:02:39;;;;;;;16.35;12.27;;;;;;;23.12;69.91;100874.88;4947258;28;103893;-49
2021/07/16 03:05:08;;;;;;;13.87;12.47;;;;;;;23.12;70.13;100884.00;4943512;28;102401;-49
2021/07/16 03:07:36;;;;;;;15.65;13.50;;;;;;;23.11;70.06;100882.38;4946933;28;102366;-49
2021/07/16 03:10:03;;;;;;;;;;;;;;;23.12;70.13;100881.25;4948836;28;102221;-50
2021/07/16 03:12:30;;;;;;;17.25;13.50;;;;;;;23.13;70.21;100888.41;4947085;28;104047;-50
2021/07/16 03:14:57;;;;;;;14.25;12.75;;;;;;;23.13;70.36;100887.59;4926669;28;102198;-49
2021/07/16 03:17:23;;;;;;;14.48;12.98;;;;;;;23.13;70.71;100888.41;4946740;28;102041;-48
2021/07/16 03:19:50;;;;;;;14.82;12.95;;;;;;;23.13;70.41;100891.16;4949728;28;102538;-49
2021/07/16 03:22:16;;;;;;;16.23;13.63;;;;;;;23.13;70.45;100899.50;4953746;28;104056;-49
2021/07/16 03:24:46;;;;;;;14.38;12.88;;;;;;;23.14;70.33;100889.19;4928053;28;102942;-49
2021/07/16 03:27:12;;;;;;;14.67;13.17;;;;;;;23.14;70.48;100884.44;4937858;28;102509;-49
2021/07/16 03:29:39;;;;;;;15.20;13.48;;;;;;;23.14;70.49;100883.66;4941215;28;102424;-49
2021/07/16 03:32:06;;;;;;;14.48;12.98;;;;;;;23.14;70.60;100889.19;4946642;28;103979;-49
2021/07/16 03:34:33;;;;;;;14.18;12.70;;;;;;;23.15;70.48;100897.19;4931517;28;102049;-49
2021/07/16 03:37:00;;;;;;;16.70;13.07;;;;;;;23.14;70.63;100890.00;4946990;28;102288;-49
2021/07/16 03:39:27;;;;;;;15.05;13.50;;;;;;;23.15;70.58;100888.88;4957803;28;102309;-49
2021/07/16 03:41:55;;;;;;;15.98;13.15;;;;;;;23.15;70.70;100894.41;4951251;28;104170;-50
2021/07/16 03:44:21;;;;;;;15.18;13.60;;;;;;;23.14;70.61;100892.78;4947435;28;102524;-50
2021/07/16 03:46:48;;;;;;;14.85;13.40;;;;;;;23.15;70.79;100891.63;4943249;28;102549;-50
2021/07/16 03:49:15;;;;;;;15.50;13.48;;;;;;;23.16;70.51;100892.44;4946149;28;102492;-50
2021/07/16 03:51:42;;;;;;;14.77;13.25;;;;;;;23.15;70.80;100886.09;4944764;28;102734;-49
2021/07/16 03:54:11;;;;;;;15.05;13.57;;;;;;;23.15;70.72;100883.31;4930490;28;102733;-50
2021/07/16 03:56:38;;;;;;;14.95;13.32;;;;;;;23.16;71.08;100882.16;4942602;28;102267;-50
2021/07/16 03:59:07;;;;;;;14.77;13.35;;;;;;;23.16;70.98;100887.69;4930889;28;102329;-50
2021/07/16 04:01:33;;;;;;;14.50;13.05;;;;;;;23.17;70.72;100885.72;4946628;28;104602;-51
2021/07/16 04:04:00;;;;;;;15.25;13.52;;;;;;;23.17;71.16;100882.94;4945137;28;102342;-49
2021/07/16 04:06:26;;;;;;;14.75;13.35;;;;;;;23.17;70.98;100880.97;4946949;28;102499;-50
2021/07/16 04:09:10;;;;;;;14.52;13.07;;;;;;;23.16;71.07;100887.69;4944949;28;102373;-50
2021/07/16 04:11:37;;;;;;;15.40;13.80;;;;;;;23.17;71.10;100888.50;4945181;28;103351;-50
2021/07/16 04:14:04;;;;;;;14.85;13.35;;;;;;;23.17;71.19;100883.75;4933832;28;102758;-50
2021/07/16 04:16:33;;;;;;;14.10;12.55;;;;;;;23.18;71.20;100884.56;4955776;28;102339;-50
2021/07/16 04:19:00;;;;;;;15.00;13.40;;;;;;;23.18;71.07;100896.47;4952099;28;102407;-50
2021/07/16 04:21:27;;;;;;;15.15;13.55;;;;;;;23.18;71.21;100893.69;4941144;28;103305;-50
2021/07/16 04:23:54;;;;;;;14.88;12.93;;;;;;;23.19;71.27;100888.97;4935533;28;102431;-50
2021/07/16 04:26:21;;;;;;;14.13;12.68;;;;;;;23.18;71.40;100888.13;4944671;28;102132;-50
2021/07/16 04:28:48;;;;;;;13.77;12.38;;;;;;;23.19;71.51;100883.41;4954915;28;102229;-49
2021/07/16 04:31:16;;;;;;;13.70;12.30;;;;;;;23.19;71.47;100886.19;4950370;28;103913;-50
2021/07/16 04:33:44;;;;;;;15.07;13.52;;;;;;;23.18;71.48;100890.91;4945088;28;102144;-50
2021/07/16 04:36:11;;;;;;;13.43;12.00;;;;;;;23.19;71.59;100892.53;4939627;28;102315;-49
2021/07/16 04:38:37;;;;;;;13.88;12.45;;;;;;;23.19;71.53;100892.53;4948731;28;102530;-51
2021/07/16 04:41:04;;;;;;;14.95;13.48;;;;;;;23.19;71.51;100887.00;4940932;28;103933;-49
2021/07/16 04:43:30;;;;;;;16.50;12.40;;;;;;;23.19;71.55;100884.22;4946006;28;102313;-50
2021/07/16 04:45:57;;;;;;;13.65;12.25;;;;;;;23.20;71.39;100888.59;4946700;28;102381;-50
2021/07/16 04:48:23;;;;;;;13.95;12.65;;;;;;;23.20;71.36;100888.59;4939771;28;102342;-50
2021/07/16 04:50:51;;;;;;;13.55;12.18;;;;;;;23.20;71.67;100883.03;4940140;28;103972;-49
2021/07/16 04:53:18;;;;;;;13.93;12.63;;;;;;;23.21;71.39;100890.22;4946635;28;102361;-49
2021/07/16 04:55:44;;;;;;;13.77;12.48;;;;;;;23.21;71.65;100884.66;4942534;28;102544;-49
2021/07/16 04:58:11;;;;;;;12.70;11.40;;;;;;;23.23;71.45;100884.31;4943163;28;103298;-50
2021/07/16 05:00:38;;;;;;;13.10;11.77;;;;;;;23.23;71.35;100892.66;4940568;28;104036;-50
2021/07/16 05:03:04;;;;;;;13.52;12.23;;;;;;;23.23;71.71;100893.44;4942480;28;102244;-49
2021/07/16 05:05:31;;;;;;;13.18;11.88;;;;;;;23.24;71.70;100889.50;4941935;28;102525;-50
2021/07/16 05:07:58;;;;;;;14.32;12.30;;;;;;;23.25;71.69;100893.88;4948037;28;102302;-50
2021/07/16 05:10:25;;;;;;;12.85;11.55;;;;;;;23.26;72.10;100891.91;4945296;28;104018;-50
2021/07/16 05:12:52;;;;;;;12.73;11.52;;;;;;;23.26;71.61;100903.84;4946536;28;102562;-49
2021/07/16 05:15:19;;;;;;;12.43;11.23;;;;;;;23.27;71.69;100897.13;4945907;28;102554;-50
2021/07/16 05:17:49;;;;;;;12.45;11.25;;;;;;;23.27;71.57;100894.34;4941558;28;106909;-50
2021/07/16 05:20:15;;;;;;;12.18;11.05;;;;;;;23.29;71.54;100893.19;4942951;28;103900;-51
2021/07/16 05:22:42;;;;;;;12.98;11.63;;;;;;;23.29;71.33;100888.44;4944753;28;102568;-50
2021/07/16 05:25:10;;;;;;;12.57;11.15;;;;;;;23.30;71.33;100903.13;4941925;28;102507;-50
2021/07/16 05:27:39;;;;;;;11.63;10.43;;;;;;;23.31;71.34;100893.66;4952450;28;102324;-49
2021/07/16 05:30:09;;;;;;;11.70;10.50;;;;;;;23.31;71.67;100900.00;4941288;28;103950;-50
2021/07/16 05:32:36;;;;;;;11.50;10.40;;;;;;;23.33;71.46;100894.09;4954858;28;102471;-50
2021/07/16 05:35:03;;;;;;;11.98;10.77;;;;;;;23.34;71.20;100904.06;4951686;28;102551;-50
2021/07/16 05:37:29;;;;;;;11.63;10.52;;;;;;;23.35;71.38;100900.13;4952667;28;102473;-49
2021/07/16 05:39:57;;;;;;;11.63;10.43;;;;;;;23.36;71.43;100893.38;4949539;28;103833;-50
2021/07/16 05:42:25;;;;;;;11.20;10.10;;;;;;;23.37;71.47;100881.13;4932753;28;102507;-50
2021/07/16 05:44:52;;;;;;;11.02;10.02;;;;;;;23.38;71.33;100888.31;4955122;28;102071;-49
2021/07/16 05:47:20;;;;;;;11.35;10.25;;;;;;;23.39;71.52;100889.91;4949978;28;102683;-49
2021/07/16 05:49:47;;;;;;;10.88;9.77;;;;;;;23.40;71.52;100886.75;4944281;28;102970;-50
2021/07/16 05:52:14;;;;;;;11.48;9.25;;;;;;;23.43;71.54;100882.47;4942773;28;102437;-49
2021/07/16 05:54:41;;;;;;;10.40;9.40;;;;;;;23.44;71.56;100892.41;4946799;28;102453;-50
2021/07/16 05:57:07;;;;;;;10.00;9.00;;;;;;;23.45;71.38;100896.84;4946724;28;102531;-50
2021/07/16 05:59:35;;;;;;;10.90;9.80;;;;;;;23.46;71.37;100896.47;4944014;28;104006;-49
2021/07/16 06:02:03;;;;;;;9.67;8.77;;;;;;;23.46;71.33;100885.34;4949391;28;102167;-50
2021/07/16 06:04:30;;;;;;;11.07;9.43;;;;;;;23.47;71.11;100886.16;4946688;28;102286;-50
2021/07/16 06:06:56;;;;;;;10.00;9.00;;;;;;;23.49;71.30;100889.41;4931153;28;105432;-49
2021/07/16 06:09:23;;;;;;;10.07;9.07;;;;;;;23.49;71.19;100883.84;4946786;28;103879;-50
2021/07/16 06:11:49;;;;;;;9.73;8.73;;;;;;;23.49;71.37;100878.28;4947541;28;102395;-50
2021/07/16 06:14:18;;;;;;;10.07;9.07;;;;;;;23.50;71.46;100880.72;4943536;28;102305;-50
2021/07/16 06:16:49;;;;;;;14.32;8.07;;;;;;;23.58;70.50;100884.47;4952187;28;102970;-49
2021/07/16 06:19:16;;;;;;;12.80;6.97;;;;;;;23.59;70.53;100882.53;4948900;28;103531;-50
2021/07/16 06:21:44;;;;;;;8.63;7.75;;;;;;;23.57;71.18;100880.09;4934909;28;102519;-50
2021/07/16 06:24:11;;;;;;;8.75;7.85;;;;;;;23.58;70.71;100880.91;4952247;28;103663;-50
2021/07/16 06:26:37;;;;;;;8.27;7.18;;;;;;;23.59;70.74;100880.56;4937944;28;102804;-49
2021/07/16 06:29:04;;;;;;;10.00;7.65;;;;;;;23.60;70.87;100884.94;4939064;28;103945;-50
2021/07/16 06:31:38;;;;;;;10.52;8.25;;;;;;;23.61;70.85;100872.66;4939946;28;102569;-50
2021/07/16 06:34:07;;;;;;;8.82;7.78;;;;;;;23.61;70.74;100869.88;4938918;28;102180;-50
2021/07/16 06:36:33;;;;;;;9.73;7.63;;;;;;;23.63;70.84;100870.34;4938526;28;102389;-50
2021/07/16 06:39:02;;;;;;;9.57;7.30;;;;;;;23.64;70.75;100869.19;4945364;28;103938;-50
2021/07/16 06:41:29;;;;;;;9.20;7.70;;;;;;;23.65;70.48;100875.53;4953062;28;102282;-50
2021/07/16 06:43:55;;;;;;;10.80;8.05;;;;;;;23.65;70.74;100862.44;4944844;28;102143;-50
2021/07/16 06:46:22;;;;;;;8.77;7.95;;;;;;;23.67;70.84;100865.72;4948765;28;102783;-51
2021/07/16 06:48:49;;;;;;;8.63;7.65;;;;;;;23.68;70.76;100859.00;4941289;28;103915;-50
2021/07/16 06:51:17;;;;;;;7.65;6.95;;;;;;;23.69;70.61;100868.97;4939968;28;102698;-50
2021/07/16 06:53:44;;;;;;;9.02;7.22;;;;;;;23.69;70.49;100863.41;4942374;28;102691;-50
2021/07/16 06:56:10;;;;;;;7.75;6.95;;;;;;;23.70;70.72;100865.00;4942927;28;106664;-50
2021/07/16 06:58:37;;;;;;;7.43;6.70;;;;;;;23.71;70.79;100863.84;4935280;28;103910;-50
2021/07/16 07:01:04;;;;;;;7.78;7.03;;;;;;;23.72;70.67;100868.22;4943536;28;102357;-50
2021/07/16 07:03:30;;;;;;;7.82;7.07;;;;;;;23.74;70.72;100863.13;4941618;28;102567;-50
2021/07/16 07:05:57;;;;;;;8.10;7.13;;;;;;;23.77;70.94;100866.38;4943753;28;102279;-50
2021/07/16 07:08:26;;;;;;;8.52;7.05;;;;;;;23.76;70.72;100865.53;4941100;28;104129;-50
2021/07/16 07:10:52;;;;;;;7.85;6.50;;;;;;;23.77;70.49;100863.59;4943376;28;102512;-50
2021/07/16 07:13:19;;;;;;;7.50;6.72;;;;;;;23.77;70.97;100864.41;4943473;28;102561;-54
2021/07/16 07:15:46;;;;;;;8.65;6.40;;;;;;;23.79;70.70;100864.03;4944422;28;102762;-50
2021/07/16 07:18:12;;;;;;;7.43;6.70;;;;;;;23.78;70.61;100863.22;4943110;28;103905;-50
2021/07/16 07:20:40;;;;;;;7.70;6.68;;;;;;;23.79;70.89;100861.25;4944761;28;102238;-50
2021/07/16 07:23:07;;;;;;;8.63;6.78;;;;;;;23.81;70.65;100864.50;4943492;28;102510;-50
2021/07/16 07:25:36;;;;;;;7.55;6.05;;;;;;;23.82;70.46;100866.09;4945051;28;103399;-50
2021/07/16 07:28:03;;;;;;;9.10;6.20;;;;;;;23.83;70.51;100876.84;4943161;28;102812;-50
2021/07/16 07:30:30;;;;;;;6.40;5.65;;;;;;;23.84;70.29;100872.91;4941984;28;104345;-50
2021/07/16 07:32:57;;;;;;;6.55;5.65;;;;;;;23.84;69.94;100861.78;4944488;28;102598;-50
2021/07/16 07:35:24;;;;;;;6.55;5.80;;;;;;;23.84;70.28;100861.78;4949696;28;103104;-50
2021/07/16 07:37:51;;;;;;;7.38;6.00;;;;;;;23.84;70.37;100861.78;4948943;28;103994;-50
2021/07/16 07:40:18;;;;;;;7.28;6.07;;;;;;;23.85;70.49;100862.59;4931868;28;102562;-50
2021/07/16 07:42:46;;;;;;;7.35;6.10;;;;;;;23.85;70.47;100866.19;4947345;28;102568;-50
2021/07/16 07:45:13;;;;;;;6.47;5.87;;;;;;;23.85;70.27;100868.16;4929639;28;103399;-50
2021/07/16 07:47:41;;;;;;;7.47;6.70;;;;;;;23.86;70.47;100864.22;4944460;28;104047;-50
2021/07/16 07:50:14;;;;;;;6.10;5.50;;;;;;;23.86;70.33;100869.75;4931130;28;102793;-50
2021/07/16 07:52:41;;;;;;;6.90;6.00;;;;;;;23.86;70.38;100865.00;4926394;28;102304;-50
2021/07/16 07:55:10;;;;;;;6.43;5.82;;;;;;;23.86;70.29;100866.97;4926033;28;102165;-50
2021/07/16 07:57:37;;;;;;;6.70;6.07;;;;;;;23.86;70.51;100867.78;4921768;28;102928;-50
2021/07/16 08:00:09;;;;;;;7.17;5.87;;;;;;;23.87;70.50;100863.03;4930738;28;102002;-50
2021/07/16 08:02:36;;;;;;;6.65;5.28;;;;;;;23.89;70.26;100869.06;4922986;28;102379;-50
2021/07/16 08:05:03;;;;;;;6.55;5.35;;;;;;;23.90;70.24;100870.66;4928684;28;102488;-50
2021/07/16 08:07:30;;;;;;;6.75;6.15;;;;;;;23.88;70.40;100862.69;4926187;28;104220;-50
2021/07/16 08:09:57;;;;;;;6.47;5.75;;;;;;;23.87;70.66;100865.81;4928836;28;102439;-50
2021/07/16 08:12:24;;;;;;;6.60;6.00;;;;;;;23.87;70.37;100860.25;4935563;28;102307;-50
2021/07/16 08:14:50;;;;;;;6.22;5.63;;;;;;;23.88;70.34;100867.44;4928745;28;102270;-50
2021/07/16 08:17:19;;;;;;;5.78;5.28;;;;;;;23.88;70.41;100865.47;4926969;28;104086;-50
2021/07/16 08:19:45;;;;;;;;;;;;;;;23.90;70.57;100865.09;4928411;28;102336;-50
2021/07/16 08:22:12;;;;;;;5.63;5.10;;;;;;;23.91;70.44;100861.97;4934119;28;102768;-50
2021/07/16 08:24:39;;;;;;;5.95;5.10;;;;;;;23.92;70.32;100857.22;4930738;28;103274;-49
2021/07/16 08:27:05;;;;;;;5.70;5.20;;;;;;;23.92;70.43;100857.22;4918271;28;104058;-50
2021/07/16 08:29:33;;;;;;;6.78;5.30;;;;;;;23.90;70.59;100853.97;4913195;28;102373;-49
2021/07/16 08:32:00;;;;;;;6.10;5.32;;;;;;;23.91;70.34;100861.16;4917976;28;102520;-50
2021/07/16 08:34:29;;;;;;;5.65;5.13;;;;;;;23.88;70.39;100848.78;4920374;28;103245;-50
2021/07/16 08:36:56;;;;;;;7.45;5.18;;;;;;;23.90;70.31;100848.44;4917971;28;104051;-50
2021/07/16 08:39:23;;;;;;;6.45;5.80;;;;;;;23.92;70.56;100860.00;4918516;28;103014;-50
2021/07/16 08:41:51;;;;;;;5.15;4.68;;;;;;;23.92;70.19;100857.22;4917215;28;102306;-50
2021/07/16 08:44:18;;;;;;;7.32;5.80;;;;;;;23.93;70.07;100853.28;4919072;28;102270;-50
2021/07/16 08:46:47;;;;;;;5.75;5.25;;;;;;;23.92;70.52;100846.09;4921950;28;104203;-50
2021/07/16 08:49:15;;;;;;;5.57;4.95;;;;;;;23.92;70.19;100840.53;4935036;28;102426;-50
2021/07/16 08:51:43;;;;;;;6.63;5.00;;;;;;;23.93;70.17;100842.16;4945845;28;102215;-50
2021/07/16 08:54:15;;;;;;;5.35;4.80;;;;;;;23.92;70.41;100848.88;4948110;28;103756;-49
2021/07/16 08:56:42;;;;;;;5.60;5.10;;;;;;;23.93;70.25;100847.72;4948239;28;104084;-50
2021/07/16 08:59:10;;;;;;;6.10;5.20;;;;;;;23.93;70.25;100842.16;4946492;28;102596;-50
2021/07/16 09:01:36;;;;;;;4.90;4.50;;;;;;;23.93;70.21;100848.50;4948795;28;102375;-49
2021/07/16 09:04:06;;;;;;;4.65;4.28;;;;;;;23.96;70.43;100847.00;4949623;28;102247;-50
2021/07/16 09:06:46;;;;;;;4.88;4.15;;;;;;;23.96;70.17;100847.81;4941759;28;103737;-50
2021/07/16 09:09:13;;;;;;;7.00;5.28;;;;;;;23.96;70.12;100841.44;4938953;28;102768;-50
2021/07/16 09:11:42;;;;;;;5.53;5.03;;;;;;;23.95;70.08;100845.41;4946740;28;102327;-50
2021/07/16 09:14:17;;;;;;;5.40;4.90;;;;;;;23.94;70.38;100849.31;4949912;28;102464;-50
2021/07/16 09:17:04;;;;;;;5.20;4.70;;;;;;;23.97;70.13;100848.59;4939888;28;104046;-50
2021/07/16 09:19:50;;;;;;;5.05;4.60;;;;;;;23.96;70.26;100841.44;4947707;28;102808;-50
2021/07/16 09:22:21;;;;;;;5.05;4.60;;;;;;;23.97;70.24;100835.50;4945134;28;102745;-50
2021/07/16 09:24:51;;;;;;;5.05;4.60;;;;;;;23.98;70.36;100837.13;4946183;28;102621;-49
2021/07/16 09:27:42;;;;;;;8.07;5.13;;;;;;;23.97;70.12;100831.94;4943728;28;105628;-49
2021/07/16 09:30:11;;;;;;;5.22;4.78;;;;;;;23.96;70.24;100831.13;4929932;28;103504;-49
2021/07/16 09:32:39;;;;;;;5.18;4.68;;;;;;;23.98;70.21;100836.31;4947700;28;102406;-50
2021/07/16 09:35:07;;;;;;;4.30;3.90;;;;;;;23.99;70.06;100837.94;4945004;28;102412;-50
2021/07/16 09:37:49;;;;;;;4.72;4.28;;;;;;;24.00;70.20;100828.44;4946783;28;103746;-50
2021/07/16 09:40:20;;;;;;;4.72;4.22;;;;;;;23.99;69.95;100829.59;4947023;28;102502;-50
2021/07/16 09:42:56;;;;;;;5.47;4.20;;;;;;;23.98;69.91;100827.97;4941606;28;102536;-49
2021/07/16 09:45:23;;;;;;;5.13;4.72;;;;;;;23.97;70.11;100824.38;4945630;28;102409;-49
2021/07/16 09:47:49;;;;;;;6.43;4.80;;;;;;;23.96;70.16;100819.19;4941152;28;102774;-49
2021/07/16 09:50:16;;;;;;;5.63;4.20;;;;;;;23.95;70.11;100817.59;4941435;28;102762;-50
2021/07/16 09:52:43;;;;;;;5.38;4.30;;;;;;;23.94;70.44;100821.53;4948590;28;102283;-50
2021/07/16 09:55:14;;;;;;;5.47;4.55;;;;;;;23.94;70.43;100815.97;4950000;28;102624;-50
2021/07/16 09:57:42;;;;;;;5.20;4.80;;;;;;;23.94;70.25;100821.53;4947669;28;103683;-50
2021/07/16 10:00:14;;;;;;;4.78;4.38;;;;;;;23.94;70.34;100821.53;4946112;28;102919;-50
2021/07/16 10:02:44;;;;;;;5.03;4.50;;;;;;;23.93;70.33;100819.91;4945159;28;104423;-50
2021/07/16 10:05:11;;;;;;;8.65;4.75;;;;;;;23.92;70.46;100818.31;4946846;28;102526;-50
2021/07/16 10:07:39;;;;;;;10.20;5.03;;;;;;;23.92;70.08;100818.31;4946342;28;103713;-50
2021/07/16 10:10:06;;;;;;;5.60;4.30;;;;;;;23.92;70.31;100829.44;4941960;28;102759;-49
2021/07/16 10:12:35;;;;;;;5.32;4.68;;;;;;;23.91;70.61;100828.63;4945566;28;102443;-49
2021/07/16 10:15:02;;;;;;;5.53;4.97;;;;;;;23.90;70.55;100820.63;4949407;28;102275;-50
2021/07/16 10:17:29;;;;;;;5.07;4.68;;;;;;;23.91;70.39;100825.00;4949603;28;104011;-50
2021/07/16 10:19:56;;;;;;;5.40;4.80;;;;;;;23.90;70.49;100815.88;4947557;28;102596;-50
2021/07/16 10:22:23;;;;;;;4.53;4.10;;;;;;;23.88;70.43;100818.22;4943885;28;102570;-50
2021/07/16 10:24:50;;;;;;;4.80;4.30;;;;;;;23.89;70.42;100819.03;4928694;28;102633;-50
2021/07/16 10:27:17;;;;;;;5.35;4.20;;;;;;;23.87;70.38;100811.03;4944608;28;103838;-50
2021/07/16 10:29:48;;;;;;;5.13;4.50;;;;;;;23.87;70.58;100810.22;4937710;28;102544;-50
2021/07/16 10:32:42;;;;;;;6.10;4.18;;;;;;;23.85;70.59;100805.03;4942277;28;103198;-49
2021/07/16 10:35:21;;;;;;;4.20;3.80;;;;;;;23.86;70.52;100808.63;4948769;28;102621;-50
2021/07/16 10:37:49;;;;;;;6.07;3.97;;;;;;;23.86;70.50;100816.97;4947773;28;104096;-50
2021/07/16 10:40:41;;;;;;;5.28;4.72;;;;;;;23.89;70.56;100819.03;4941935;28;102881;-50
2021/07/16 10:43:40;;;;;;;4.43;4.03;;;;;;;23.89;70.32;100808.72;4938743;28;102426;-50
2021/07/16 10:46:34;;;;;;;4.50;4.10;;;;;;;23.89;70.46;100813.47;4944595;28;102382;-49
2021/07/16 10:49:02;;;;;;;4.43;4.03;;;;;;;23.87;70.37;100799.09;4942317;28;104017;-50
2021/07/16 10:51:31;;;;;;;4.38;4.07;;;;;;;23.87;70.39;100801.88;4942784;28;102206;-49
2021/07/16 10:53:59;;;;;;;5.53;4.40;;;;;;;23.87;70.22;100804.66;4931210;28;102631;-49
2021/07/16 10:56:43;;;;;;;4.80;4.30;;;;;;;23.88;70.31;100803.53;4945331;28;102259;-50
2021/07/16 10:59:11;;;;;;;4.28;3.88;;;;;;;23.86;70.29;100797.50;4947818;28;103851;-50
2021/07/16 11:01:41;;;;;;;5.90;4.00;;;;;;;23.85;70.46;100796.69;4946293;28;102445;-49
2021/07/16 11:04:29;;;;;;;4.50;4.10;;;;;;;23.85;70.56;100796.69;4942989;28;102631;-50
2021/07/16 11:06:58;;;;;;;4.97;4.40;;;;;;;23.84;70.70;100788.72;4949766;28;102619;-50
2021/07/16 11:09:35;;;;;;;3.92;3.53;;;;;;;23.84;70.50;100789.53;4944325;28;103699;-49
2021/07/16 11:12:23;;;;;;;5.15;4.55;;;;;;;23.84;70.68;100783.16;4929105;28;102612;-49
2021/07/16 11:14:53;;;;;;;4.28;3.88;;;;;;;23.82;70.67;100782.72;4940630;28;102908;-49